sensor_id;sensor_type;location;lat;lon;timestamp;pressure;altitude;pressure_sealevel;temperature;humidity
47670;BME280;33408;52.062;11.722;2023-02-18T00:01:32;101396.06;;;6.54;100.00
47670;BME280;33408;52.062;11.722;2023-02-18T00:03:59;101391.72;;;6.50;100.00
47670;BME280;33408;52.062;11.722;2023-02-18T00:06:27;101398.72;;;6.60;100.00
47670;BME280;33408;52.062;11.722;2023-02-18T00:08:56;101396.88;;;6.50;100.00
47670;BME280;33408;52.062;11.722;2023-02-18T00:11:26;101400.31;;;6.50;100.00
47670;BME280;33408;52.062;11.722;2023-02-18T00:13:55;101398.63;;;6.52;100.00
47670;BME280;33408;52.062;11.722;2023-02-18T00:16:23;101408.94;;;6.52;100.00
47670;BME280;33408;52.062;11.722;2023-02-18T00:18:54;101408.88;;;6.46;100.00
47670;BME280;33408;52.062;11.722;2023-02-18T00:21:20;101416.59;;;6.46;100.00
47670;BME280;33408;52.062;11.722;2023-02-18T00:23:47;101407.13;;;6.45;100.00
47670;BME280;33408;52.062;11.722;2023-02-18T00:26:16;101409.69;;;6.44;100.00
47670;BME280;33408;52.062;11.722;2023-02-18T00:28:44;101404.50;;;6.39;100.00
47670;BME280;33408;52.062;11.722;2023-02-18T00:31:13;101414.75;;;6.33;100.00
47670;BME280;33408;52.062;11.722;2023-02-18T00:33:40;101407.88;;;6.33;100.00
47670;BME280;33408;52.062;11.722;2023-02-18T00:36:12;101407.91;;;6.35;100.00
47670;BME280;33408;52.062;11.722;2023-02-18T00:38:43;101390.72;;;6.35;100.00
47670;BME280;33408;52.062;11.722;2023-02-18T00:41:09;101383.00;;;6.35;100.00
47670;BME280;33408;52.062;11.722;2023-02-18T00:43:37;101388.19;;;6.37;100.00
47670;BME280;33408;52.062;11.722;2023-02-18T00:46:04;101389.91;;;6.38;100.00
47670;BME280;33408;52.062;11.722;2023-02-18T00:48:32;101389.97;;;6.43;100.00
47670;BME280;33408;52.062;11.722;2023-02-18T00:50:59;101377.88;;;6.38;100.00
47670;BME280;33408;52.062;11.722;2023-02-18T00:53:26;101382.16;;;6.35;100.00
47670;BME280;33408;52.062;11.722;2023-02-18T00:55:53;101383.00;;;6.34;100.00
47670;BME280;33408;52.062;11.722;2023-02-18T00:58:19;101377.75;;;6.26;100.00
47670;BME280;33408;52.062;11.722;2023-02-18T01:00:47;101385.47;;;6.25;100.00
47670;BME280;33408;52.062;11.722;2023-02-18T01:03:15;101397.53;;;6.29;100.00
47670;BME280;33408;52.062;11.722;2023-02-18T01:05:42;101393.22;;;6.23;100.00
47670;BME280;33408;52.062;11.722;2023-02-18T01:08:10;101394.91;;;6.24;100.00
47670;BME280;33408;52.062;11.722;2023-02-18T01:10:41;101387.22;;;6.26;100.00
47670;BME280;33408;52.062;11.722;2023-02-18T01:13:08;101396.56;;;6.17;100.00
47670;BME280;33408;52.062;11.722;2023-02-18T01:15:36;101398.19;;;6.09;100.00
47670;BME280;33408;52.062;11.722;2023-02-18T01:18:04;101391.34;;;6.10;100.00
47670;BME280;33408;52.062;11.722;2023-02-18T01:20:32;101398.28;;;6.15;100.00
47670;BME280;33408;52.062;11.722;2023-02-18T01:22:58;101401.66;;;6.11;100.00
47670;BME280;33408;52.062;11.722;2023-02-18T01:25:25;101405.94;;;6.09;100.00
47670;BME280;33408;52.062;11.722;2023-02-18T01:27:51;101411.00;;;6.03;100.00
47670;BME280;33408;52.062;11.722;2023-02-18T01:30:18;101404.84;;;5.92;100.00
47670;BME280;33408;52.062;11.722;2023-02-18T01:32:45;101406.47;;;5.85;100.00
47670;BME280;33408;52.062;11.722;2023-02-18T01:35:15;101407.16;;;5.70;100.00
47670;BME280;33408;52.062;11.722;2023-02-18T01:37:42;101408.91;;;5.74;100.00
47670;BME280;33408;52.062;11.722;2023-02-18T01:40:11;101422.47;;;5.61;100.00
47670;BME280;33408;52.062;11.722;2023-02-18T01:42:38;101429.38;;;5.65;100.00
47670;BME280;33408;52.062;11.722;2023-02-18T01:48:11;101419.47;;;5.30;100.00
47670;BME280;33408;52.062;11.722;2023-02-18T01:50:44;101425.47;;;5.29;100.00
47670;BME280;33408;52.062;11.722;2023-02-18T01:53:13;101421.94;;;5.22;100.00
47670;BME280;33408;52.062;11.722;2023-02-18T01:55:41;101422.59;;;5.09;100.00
47670;BME280;33408;52.062;11.722;2023-02-18T01:58:07;101421.66;;;5.05;100.00
47670;BME280;33408;52.062;11.722;2023-02-18T02:00:34;101413.13;;;5.06;100.00
47670;BME280;33408;52.062;11.722;2023-02-18T02:03:01;101411.47;;;5.10;100.00
47670;BME280;33408;52.062;11.722;2023-02-18T02:05:30;101406.22;;;5.04;100.00
47670;BME280;33408;52.062;11.722;2023-02-18T02:08:00;101410.47;;;5.00;100.00
47670;BME280;33408;52.062;11.722;2023-02-18T02:10:31;101419.06;;;5.04;100.00
47670;BME280;33408;52.062;11.722;2023-02-18T02:13:07;101418.38;;;5.13;100.00
47670;BME280;33408;52.062;11.722;2023-02-18T02:15:44;101412.41;;;5.17;100.00
47670;BME280;33408;52.062;11.722;2023-02-18T02:18:38;101426.38;;;5.34;100.00
47670;BME280;33408;52.062;11.722;2023-02-18T02:21:31;101416.06;;;5.31;100.00
47670;BME280;33408;52.062;11.722;2023-02-18T02:27:25;101404.28;;;5.48;100.00
47670;BME280;33408;52.062;11.722;2023-02-18T02:30:26;101395.84;;;5.56;100.00
47670;BME280;33408;52.062;11.722;2023-02-18T02:35:56;101395.91;;;5.62;100.00
47670;BME280;33408;52.062;11.722;2023-02-18T02:38:31;101393.31;;;5.60;100.00
47670;BME280;33408;52.062;11.722;2023-02-18T02:41:06;101387.28;;;5.58;100.00
47670;BME280;33408;52.062;11.722;2023-02-18T02:43:45;101388.13;;;5.56;100.00
47670;BME280;33408;52.062;11.722;2023-02-18T02:46:18;101389.78;;;5.54;100.00
47670;BME280;33408;52.062;11.722;2023-02-18T02:48:53;101389.78;;;5.51;100.00
47670;BME280;33408;52.062;11.722;2023-02-18T02:51:28;101385.47;;;5.50;100.00
47670;BME280;33408;52.062;11.722;2023-02-18T02:54:09;101377.78;;;5.53;100.00
47670;BME280;33408;52.062;11.722;2023-02-18T02:56:35;101382.94;;;5.53;100.00
47670;BME280;33408;52.062;11.722;2023-02-18T02:59:09;101383.66;;;5.44;100.00
47670;BME280;33408;52.062;11.722;2023-02-18T03:01:43;101373.44;;;5.48;100.00
47670;BME280;33408;52.062;11.722;2023-02-18T03:04:38;101383.00;;;5.57;100.00
47670;BME280;33408;52.062;11.722;2023-02-18T03:07:23;101376.19;;;5.61;100.00
47670;BME280;33408;52.062;11.722;2023-02-18T03:10:04;101375.25;;;5.56;100.00
47670;BME280;33408;52.062;11.722;2023-02-18T03:12:42;101374.34;;;5.54;100.00
47670;BME280;33408;52.062;11.722;2023-02-18T03:15:18;101375.31;;;5.60;100.00
47670;BME280;33408;52.062;11.722;2023-02-18T03:17:51;101389.13;;;5.69;100.00
47670;BME280;33408;52.062;11.722;2023-02-18T03:20:24;101381.47;;;5.72;100.00
47670;BME280;33408;52.062;11.722;2023-02-18T03:22:55;101373.75;;;5.73;100.00
47670;BME280;33408;52.062;11.722;2023-02-18T03:25:24;101369.53;;;5.78;100.00
47670;BME280;33408;52.062;11.722;2023-02-18T03:27:53;101360.13;;;5.82;100.00
47670;BME280;33408;52.062;11.722;2023-02-18T03:30:24;101360.22;;;5.90;100.00
47670;BME280;33408;52.062;11.722;2023-02-18T03:32:57;101356.75;;;5.84;100.00
47670;BME280;33408;52.062;11.722;2023-02-18T03:35:25;101357.69;;;5.93;100.00
47670;BME280;33408;52.062;11.722;2023-02-18T03:37:59;101355.09;;;5.91;100.00
47670;BME280;33408;52.062;11.722;2023-02-18T03:40:28;101359.47;;;5.97;100.00
47670;BME280;33408;52.062;11.722;2023-02-18T03:42:56;101359.53;;;6.03;100.00
47670;BME280;33408;52.062;11.722;2023-02-18T03:45:23;101350.94;;;6.02;100.00
47670;BME280;33408;52.062;11.722;2023-02-18T03:47:49;101348.41;;;6.06;100.00
47670;BME280;33408;52.062;11.722;2023-02-18T03:50:17;101352.72;;;6.10;100.00
47670;BME280;33408;52.062;11.722;2023-02-18T03:52:43;101353.66;;;6.16;100.00
47670;BME280;33408;52.062;11.722;2023-02-18T03:55:12;101351.09;;;6.19;100.00
47670;BME280;33408;52.062;11.722;2023-02-18T03:57:38;101363.19;;;6.25;100.00
47670;BME280;33408;52.062;11.722;2023-02-18T04:00:06;101351.25;;;6.33;100.00
47670;BME280;33408;52.062;11.722;2023-02-18T04:02:34;101337.53;;;6.39;100.00
47670;BME280;33408;52.062;11.722;2023-02-18T04:05:01;101332.38;;;6.36;100.00
47670;BME280;33408;52.062;11.722;2023-02-18T04:07:28;101326.38;;;6.38;100.00
47670;BME280;33408;52.062;11.722;2023-02-18T04:09:54;101321.25;;;6.42;100.00
47670;BME280;33408;52.062;11.722;2023-02-18T04:12:22;101329.81;;;6.41;100.00
47670;BME280;33408;52.062;11.722;2023-02-18T04:14:49;101341.81;;;6.37;100.00
47670;BME280;33408;52.062;11.722;2023-02-18T04:17:15;101344.44;;;6.40;100.00
47670;BME280;33408;52.062;11.722;2023-02-18T04:19:42;101334.16;;;6.43;100.00
47670;BME280;33408;52.062;11.722;2023-02-18T04:22:09;101332.47;;;6.47;100.00
47670;BME280;33408;52.062;11.722;2023-02-18T04:24:35;101345.34;;;6.47;100.00
47670;BME280;33408;52.062;11.722;2023-02-18T04:27:02;101336.81;;;6.54;100.00
47670;BME280;33408;52.062;11.722;2023-02-18T04:29:30;101330.00;;;6.59;100.00
47670;BME280;33408;52.062;11.722;2023-02-18T04:31:57;101330.81;;;6.55;100.00
47670;BME280;33408;52.062;11.722;2023-02-18T04:34:24;101327.41;;;6.59;100.00
47670;BME280;33408;52.062;11.722;2023-02-18T04:36:51;101331.72;;;6.65;100.00
47670;BME280;33408;52.062;11.722;2023-02-18T04:39:17;101332.63;;;6.67;100.00
47670;BME280;33408;52.062;11.722;2023-02-18T04:41:44;101329.19;;;6.68;100.00
47670;BME280;33408;52.062;11.722;2023-02-18T04:44:10;101318.94;;;6.74;100.00
47670;BME280;33408;52.062;11.722;2023-02-18T04:46:39;101330.94;;;6.72;100.00
47670;BME280;33408;52.062;11.722;2023-02-18T04:49:05;101328.41;;;6.78;100.00
47670;BME280;33408;52.062;11.722;2023-02-18T04:51:32;101326.66;;;6.72;100.00
47670;BME280;33408;52.062;11.722;2023-02-18T04:53:58;101329.22;;;6.74;100.00
47670;BME280;33408;52.062;11.722;2023-02-18T04:56:25;101330.09;;;6.71;100.00
47670;BME280;33408;52.062;11.722;2023-02-18T04:58:51;101329.28;;;6.79;100.00
47670;BME280;33408;52.062;11.722;2023-02-18T05:01:18;101331.84;;;6.80;100.00
47670;BME280;33408;52.062;11.722;2023-02-18T05:03:47;101319.81;;;6.81;100.00
47670;BME280;33408;52.062;11.722;2023-02-18T05:06:14;101318.09;;;6.78;100.00
47670;BME280;33408;52.062;11.722;2023-02-18T05:08:40;101326.72;;;6.83;100.00
47670;BME280;33408;52.062;11.722;2023-02-18T05:11:07;101318.97;;;6.82;100.00
47670;BME280;33408;52.062;11.722;2023-02-18T05:13:34;101326.72;;;6.83;100.00
47670;BME280;33408;52.062;11.722;2023-02-18T05:16:01;101322.44;;;6.87;100.00
47670;BME280;33408;52.062;11.722;2023-02-18T05:18:27;101318.09;;;6.78;100.00
47670;BME280;33408;52.062;11.722;2023-02-18T05:20:55;101309.53;;;6.82;100.00
47670;BME280;33408;52.062;11.722;2023-02-18T05:23:22;101314.66;;;6.81;100.00
47670;BME280;33408;52.062;11.722;2023-02-18T05:25:50;101309.53;;;6.84;100.00
47670;BME280;33408;52.062;11.722;2023-02-18T05:28:19;101303.50;;;6.77;100.00
47670;BME280;33408;52.062;11.722;2023-02-18T05:30:46;101299.19;;;6.79;100.00
47670;BME280;33408;52.062;11.722;2023-02-18T05:33:12;101294.94;;;6.80;100.00
47670;BME280;33408;52.062;11.722;2023-02-18T05:35:39;101287.22;;;6.87;100.00
47670;BME280;33408;52.062;11.722;2023-02-18T05:38:07;101286.38;;;6.88;100.00
47670;BME280;33408;52.062;11.722;2023-02-18T05:40:34;101284.63;;;6.86;100.00
47670;BME280;33408;52.062;11.722;2023-02-18T05:43:00;101287.25;;;6.93;100.00
47670;BME280;33408;52.062;11.722;2023-02-18T05:45:27;101279.50;;;6.92;100.00
47670;BME280;33408;52.062;11.722;2023-02-18T05:47:53;101278.63;;;6.85;100.00
47670;BME280;33408;52.062;11.722;2023-02-18T05:50:20;101286.41;;;6.93;100.00
47670;BME280;33408;52.062;11.722;2023-02-18T05:52:47;101277.84;;;6.96;100.00
47670;BME280;33408;52.062;11.722;2023-02-18T05:55:15;101274.41;;;6.98;100.00
47670;BME280;33408;52.062;11.722;2023-02-18T05:57:41;101273.53;;;6.93;100.00
47670;BME280;33408;52.062;11.722;2023-02-18T06:00:09;101270.09;;;7.00;100.00
47670;BME280;33408;52.062;11.722;2023-02-18T06:02:36;101266.66;;;6.98;100.00
47670;BME280;33408;52.062;11.722;2023-02-18T06:05:02;101267.56;;;7.05;100.00
47670;BME280;33408;52.062;11.722;2023-02-18T06:07:29;101256.38;;;7.04;100.00
47670;BME280;33408;52.062;11.722;2023-02-18T06:09:56;101264.16;;;7.12;100.00
47670;BME280;33408;52.062;11.722;2023-02-18T06:12:24;101261.59;;;7.14;100.00
47670;BME280;33408;52.062;11.722;2023-02-18T06:14:50;101255.56;;;7.10;100.00
47670;BME280;33408;52.062;11.722;2023-02-18T06:17:17;101247.81;;;7.05;100.00
47670;BME280;33408;52.062;11.722;2023-02-18T06:19:44;101251.25;;;7.09;100.00
47670;BME280;33408;52.062;11.722;2023-02-18T06:22:12;101262.44;;;7.11;100.00
47670;BME280;33408;52.062;11.722;2023-02-18T06:24:38;101260.75;;;7.19;100.00
47670;BME280;33408;52.062;11.722;2023-02-18T06:27:05;101248.69;;;7.09;100.00
47670;BME280;33408;52.062;11.722;2023-02-18T06:29:33;101249.50;;;7.03;100.00
47670;BME280;33408;52.062;11.722;2023-02-18T06:32:01;101253.81;;;7.04;100.00
47670;BME280;33408;52.062;11.722;2023-02-18T06:34:27;101255.50;;;6.98;100.00
47670;BME280;33408;52.062;11.722;2023-02-18T06:36:54;101249.53;;;7.12;100.00
47670;BME280;33408;52.062;11.722;2023-02-18T06:39:20;101257.28;;;7.11;100.00
47670;BME280;33408;52.062;11.722;2023-02-18T06:41:47;101245.25;;;7.18;100.00
47670;BME280;33408;52.062;11.722;2023-02-18T06:44:14;101236.69;;;7.19;100.00
47670;BME280;33408;52.062;11.722;2023-02-18T06:46:43;101226.34;;;7.14;100.00
47670;BME280;33408;52.062;11.722;2023-02-18T06:49:10;101216.88;;;7.11;100.00
47670;BME280;33408;52.062;11.722;2023-02-18T06:51:36;101218.56;;;7.00;100.00
47670;BME280;33408;52.062;11.722;2023-02-18T06:54:03;101207.38;;;6.97;100.00
47670;BME280;33408;52.062;11.722;2023-02-18T06:56:31;101204.78;;;6.92;100.00
47670;BME280;33408;52.062;11.722;2023-02-18T06:58:57;101211.59;;;6.82;100.00
47670;BME280;33408;52.062;11.722;2023-02-18T07:01:25;101209.00;;;6.70;100.00
47670;BME280;33408;52.062;11.722;2023-02-18T07:03:53;101206.44;;;6.73;100.00
47670;BME280;33408;52.062;11.722;2023-02-18T07:06:20;101196.91;;;6.61;100.00
47670;BME280;33408;52.062;11.722;2023-02-18T07:08:46;101192.53;;;6.48;100.00
47670;BME280;33408;52.062;11.722;2023-02-18T07:11:13;101192.56;;;6.52;100.00
47670;BME280;33408;52.062;11.722;2023-02-18T07:13:39;101186.59;;;6.60;100.00
47670;BME280;33408;52.062;11.722;2023-02-18T07:16:06;101182.31;;;6.60;100.00
47670;BME280;33408;52.062;11.722;2023-02-18T07:18:32;101184.00;;;6.60;100.00
47670;BME280;33408;52.062;11.722;2023-02-18T07:21:00;101179.75;;;6.65;100.00
47670;BME280;33408;52.062;11.722;2023-02-18T07:23:27;101176.34;;;6.69;100.00
47670;BME280;33408;52.062;11.722;2023-02-18T07:26:02;101161.78;;;6.82;100.00
47670;BME280;33408;52.062;11.722;2023-02-18T07:28:29;101172.06;;;6.72;100.00
47670;BME280;33408;52.062;11.722;2023-02-18T07:30:55;101164.34;;;6.79;100.00
47670;BME280;33408;52.062;11.722;2023-02-18T07:33:22;101171.22;;;6.77;100.00
47670;BME280;33408;52.062;11.722;2023-02-18T07:35:52;101168.66;;;6.77;100.00
47670;BME280;33408;52.062;11.722;2023-02-18T07:38:20;101158.34;;;6.86;100.00
47670;BME280;33408;52.062;11.722;2023-02-18T07:40:47;101154.97;;;6.94;100.00
47670;BME280;33408;52.062;11.722;2023-02-18T07:43:13;101150.69;;;7.00;100.00
47670;BME280;33408;52.062;11.722;2023-02-18T07:45:40;101149.88;;;7.10;100.00
47670;BME280;33408;52.062;11.722;2023-02-18T07:48:06;101139.53;;;7.13;100.00
47670;BME280;33408;52.062;11.722;2023-02-18T07:50:33;101136.97;;;7.13;100.00
47670;BME280;33408;52.062;11.722;2023-02-18T07:53:02;101117.19;;;7.04;100.00
47670;BME280;33408;52.062;11.722;2023-02-18T07:55:30;101118.91;;;7.13;100.00
47670;BME280;33408;52.062;11.722;2023-02-18T07:58:11;101113.78;;;7.22;100.00
47670;BME280;33408;52.062;11.722;2023-02-18T08:00:38;101108.63;;;7.07;100.00
47670;BME280;33408;52.062;11.722;2023-02-18T08:03:04;101104.31;;;7.07;100.00
47670;BME280;33408;52.062;11.722;2023-02-18T08:05:31;101100.88;;;7.13;100.00
47670;BME280;33408;52.062;11.722;2023-02-18T08:07:58;101100.88;;;7.10;100.00
47670;BME280;33408;52.062;11.722;2023-02-18T08:10:24;101097.44;;;7.17;100.00
47670;BME280;33408;52.062;11.722;2023-02-18T08:12:52;101094.03;;;7.20;100.00
47670;BME280;33408;52.062;11.722;2023-02-18T08:15:19;101081.97;;;7.14;100.00
47670;BME280;33408;52.062;11.722;2023-02-18T08:17:45;101077.66;;;7.13;100.00
47670;BME280;33408;52.062;11.722;2023-02-18T08:20:12;101082.00;;;7.23;100.00
47670;BME280;33408;52.062;11.722;2023-02-18T08:22:38;101077.69;;;7.35;100.00
47670;BME280;33408;52.062;11.722;2023-02-18T08:25:05;101081.97;;;7.40;100.00
47670;BME280;33408;52.062;11.722;2023-02-18T08:27:32;101069.09;;;7.28;100.00
47670;BME280;33408;52.062;11.722;2023-02-18T08:30:00;101066.53;;;7.25;100.00
47670;BME280;33408;52.062;11.722;2023-02-18T08:32:27;101065.66;;;7.38;100.00
47670;BME280;33408;52.062;11.722;2023-02-18T08:34:54;101056.19;;;7.40;100.00
47670;BME280;33408;52.062;11.722;2023-02-18T08:37:21;101050.19;;;7.47;100.00
47670;BME280;33408;52.062;11.722;2023-02-18T08:39:48;101044.16;;;7.50;100.00
47670;BME280;33408;52.062;11.722;2023-02-18T08:42:14;101032.13;;;7.51;100.00
47670;BME280;33408;52.062;11.722;2023-02-18T08:44:41;101033.88;;;7.44;100.00
47670;BME280;33408;52.062;11.722;2023-02-18T08:47:09;101040.72;;;7.42;100.00
47670;BME280;33408;52.062;11.722;2023-02-18T08:49:36;101023.53;;;7.42;100.00
47670;BME280;33408;52.062;11.722;2023-02-18T08:52:03;101021.81;;;7.58;100.00
47670;BME280;33408;52.062;11.722;2023-02-18T08:54:29;101027.81;;;7.54;100.00
47670;BME280;33408;52.062;11.722;2023-02-18T08:56:56;101020.06;;;7.57;100.00
47670;BME280;33408;52.062;11.722;2023-02-18T08:59:23;101011.50;;;7.52;100.00
47670;BME280;33408;52.062;11.722;2023-02-18T09:01:50;101020.94;;;7.48;100.00
47670;BME280;33408;52.062;11.722;2023-02-18T09:04:19;101019.22;;;7.54;100.00
47670;BME280;33408;52.062;11.722;2023-02-18T09:06:46;101002.03;;;7.54;100.00
47670;BME280;33408;52.062;11.722;2023-02-18T09:09:14;100995.13;;;7.61;100.00
47670;BME280;33408;52.062;11.722;2023-02-18T09:11:41;100993.38;;;7.66;100.00
47670;BME280;33408;52.062;11.722;2023-02-18T09:14:08;100988.22;;;7.75;100.00
47670;BME280;33408;52.062;11.722;2023-02-18T09:16:35;100983.91;;;7.73;100.00
47670;BME280;33408;52.062;11.722;2023-02-18T09:19:03;100971.88;;;7.75;100.00
47670;BME280;33408;52.062;11.722;2023-02-18T09:21:31;100971.00;;;7.76;100.00
47670;BME280;33408;52.062;11.722;2023-02-18T09:23:58;100954.66;;;7.77;100.00
47670;BME280;33408;52.062;11.722;2023-02-18T09:26:26;100951.22;;;7.78;100.00
47670;BME280;33408;52.062;11.722;2023-02-18T09:28:54;100941.75;;;7.81;100.00
47670;BME280;33408;52.062;11.722;2023-02-18T09:31:23;100936.47;;;8.01;100.00
47670;BME280;33408;52.062;11.722;2023-02-18T09:33:54;100932.22;;;7.94;100.00
47670;BME280;33408;52.062;11.722;2023-02-18T09:36:21;100928.75;;;8.01;100.00
47670;BME280;33408;52.062;11.722;2023-02-18T09:38:49;100922.72;;;8.02;100.00
47670;BME280;33408;52.062;11.722;2023-02-18T09:41:26;100927.84;;;8.10;100.00
47670;BME280;33408;52.062;11.722;2023-02-18T09:43:56;100932.09;;;8.19;100.00
47670;BME280;33408;52.062;11.722;2023-02-18T09:46:27;100923.50;;;8.18;100.00
47670;BME280;33408;52.062;11.722;2023-02-18T09:48:57;100923.53;;;8.11;100.00
47670;BME280;33408;52.062;11.722;2023-02-18T09:51:25;100915.78;;;8.15;100.00
47670;BME280;33408;52.062;11.722;2023-02-18T09:53:53;100907.97;;;8.25;100.00
47670;BME280;33408;52.062;11.722;2023-02-18T09:56:24;100901.00;;;8.44;100.00
47670;BME280;33408;52.062;11.722;2023-02-18T09:58:53;100900.13;;;8.45;100.00
47670;BME280;33408;52.062;11.722;2023-02-18T10:01:24;100891.53;;;8.44;100.00
47670;BME280;33408;52.062;11.722;2023-02-18T10:03:57;100891.50;;;8.47;100.00
47670;BME280;33408;52.062;11.722;2023-02-18T10:06:29;100872.47;;;8.57;100.00
47670;BME280;33408;52.062;11.722;2023-02-18T10:08:59;100864.72;;;8.56;100.00
47670;BME280;33408;52.062;11.722;2023-02-18T10:11:29;100860.28;;;8.72;100.00
47670;BME280;33408;52.062;11.722;2023-02-18T10:13:57;100859.47;;;8.67;100.00
47670;BME280;33408;52.062;11.722;2023-02-18T10:16:27;100859.47;;;8.68;100.00
47670;BME280;33408;52.062;11.722;2023-02-18T10:18:56;100849.94;;;8.75;100.00
47670;BME280;33408;52.062;11.722;2023-02-18T10:21:26;100843.03;;;8.75;100.00
47670;BME280;33408;52.062;11.722;2023-02-18T10:23:59;100845.56;;;8.82;100.00
47670;BME280;33408;52.062;11.722;2023-02-18T10:26:28;100844.56;;;8.95;100.00
47670;BME280;33408;52.062;11.722;2023-02-18T10:28:56;100833.22;;;9.11;100.00
47670;BME280;33408;52.062;11.722;2023-02-18T10:31:27;100831.31;;;9.26;100.00
47670;BME280;33408;52.062;11.722;2023-02-18T10:33:59;100830.34;;;9.35;100.00
47670;BME280;33408;52.062;11.722;2023-02-18T10:36:35;100818.84;;;9.57;100.00
47670;BME280;33408;52.062;11.722;2023-02-18T10:39:36;100823.66;;;9.85;100.00
47670;BME280;33408;52.062;11.722;2023-02-18T10:42:20;100811.19;;;10.12;100.00
47670;BME280;33408;52.062;11.722;2023-02-18T10:44:59;100802.28;;;10.30;100.00
47670;BME280;33408;52.062;11.722;2023-02-18T10:47:35;100803.03;;;10.38;100.00
47670;BME280;33408;52.062;11.722;2023-02-18T10:50:12;100779.50;;;10.50;100.00
47670;BME280;33408;52.062;11.722;2023-02-18T10:52:48;100785.22;;;10.69;100.00
47670;BME280;33408;52.062;11.722;2023-02-18T10:55:18;100781.41;;;10.89;100.00
47670;BME280;33408;52.062;11.722;2023-02-18T10:57:47;100778.53;;;11.03;100.00
47670;BME280;33408;52.062;11.722;2023-02-18T11:00:18;100773.81;;;11.22;100.00
47670;BME280;33408;52.062;11.722;2023-02-18T11:03:01;100763.22;;;11.32;100.00
47670;BME280;33408;52.062;11.722;2023-02-18T11:05:34;100758.06;;;11.31;100.00
47670;BME280;33408;52.062;11.722;2023-02-18T11:08:05;100751.75;;;11.43;100.00
47670;BME280;33408;52.062;11.722;2023-02-18T11:10:38;100730.97;;;11.44;100.00
47670;BME280;33408;52.062;11.722;2023-02-18T11:13:07;100728.19;;;11.52;100.00
47670;BME280;33408;52.062;11.722;2023-02-18T11:15:34;100739.44;;;11.53;100.00
47670;BME280;33408;52.062;11.722;2023-02-18T11:18:12;100718.75;;;11.49;100.00
47670;BME280;33408;52.062;11.722;2023-02-18T11:20:39;100727.66;;;11.38;100.00
47670;BME280;33408;52.062;11.722;2023-02-18T11:23:16;100705.31;;;11.30;100.00
47670;BME280;33408;52.062;11.722;2023-02-18T11:25:55;100713.47;;;11.13;100.00
47670;BME280;33408;52.062;11.722;2023-02-18T11:28:41;100694.31;;;11.19;100.00
47670;BME280;33408;52.062;11.722;2023-02-18T11:31:09;100716.47;;;11.36;100.00
47670;BME280;33408;52.062;11.722;2023-02-18T11:33:40;100707.44;;;11.52;100.00
47670;BME280;33408;52.062;11.722;2023-02-18T11:36:16;100705.78;;;11.85;100.00
47670;BME280;33408;52.062;11.722;2023-02-18T11:38:46;100700.44;;;11.93;100.00
47670;BME280;33408;52.062;11.722;2023-02-18T11:41:17;100686.84;;;12.18;100.00
47670;BME280;33408;52.062;11.722;2023-02-18T11:43:47;100684.00;;;12.27;100.00
47670;BME280;33408;52.062;11.722;2023-02-18T11:46:17;100678.69;;;12.32;100.00
47670;BME280;33408;52.062;11.722;2023-02-18T11:48:44;100668.50;;;12.55;100.00
47670;BME280;33408;52.062;11.722;2023-02-18T11:51:16;100660.56;;;12.29;100.00
47670;BME280;33408;52.062;11.722;2023-02-18T11:53:56;100642.66;;;12.18;100.00
47670;BME280;33408;52.062;11.722;2023-02-18T11:56:26;100639.25;;;12.16;100.00
47670;BME280;33408;52.062;11.722;2023-02-18T11:58:54;100642.03;;;12.08;100.00
47670;BME280;33408;52.062;11.722;2023-02-18T12:01:29;100656.78;;;12.08;100.00
47670;BME280;33408;52.062;11.722;2023-02-18T12:03:59;100660.69;;;12.24;100.00
47670;BME280;33408;52.062;11.722;2023-02-18T12:06:33;100650.09;;;11.97;100.00
47670;BME280;33408;52.062;11.722;2023-02-18T12:09:04;100643.19;;;11.98;100.00
47670;BME280;33408;52.062;11.722;2023-02-18T12:11:37;100644.25;;;11.88;100.00
47670;BME280;33408;52.062;11.722;2023-02-18T12:14:08;100662.47;;;11.86;100.00
47670;BME280;33408;52.062;11.722;2023-02-18T12:16:56;100634.03;;;11.81;100.00
47670;BME280;33408;52.062;11.722;2023-02-18T12:22:25;100636.53;;;11.84;100.00
47670;BME280;33408;52.062;11.722;2023-02-18T12:25:08;100638.09;;;11.93;100.00
47670;BME280;33408;52.062;11.722;2023-02-18T12:27:54;100624.50;;;11.82;100.00
47670;BME280;33408;52.062;11.722;2023-02-18T12:30:38;100645.94;;;11.92;100.00
47670;BME280;33408;52.062;11.722;2023-02-18T12:33:17;100649.59;;;11.81;100.00
47670;BME280;33408;52.062;11.722;2023-02-18T12:35:59;100650.69;;;11.73;100.00
47670;BME280;33408;52.062;11.722;2023-02-18T12:38:46;100653.34;;;11.71;100.00
47670;BME280;33408;52.062;11.722;2023-02-18T12:41:40;100656.94;;;11.64;100.00
47670;BME280;33408;52.062;11.722;2023-02-18T12:44:24;100658.63;;;11.66;100.00
47670;BME280;33408;52.062;11.722;2023-02-18T12:47:09;100643.13;;;11.63;100.00
47670;BME280;33408;52.062;11.722;2023-02-18T12:50:00;100650.91;;;11.63;100.00
47670;BME280;33408;52.062;11.722;2023-02-18T12:52:37;100648.00;;;11.77;100.00
47670;BME280;33408;52.062;11.722;2023-02-18T12:58:12;100636.81;;;11.75;100.00
47670;BME280;33408;52.062;11.722;2023-02-18T13:01:21;100629.63;;;11.85;100.00
47670;BME280;33408;52.062;11.722;2023-02-18T13:07:24;100667.56;;;12.25;100.00
47670;BME280;33408;52.062;11.722;2023-02-18T13:10:11;100648.03;;;11.76;100.00
47670;BME280;33408;52.062;11.722;2023-02-18T13:12:48;100651.75;;;11.64;100.00